createdAt,value
2018-12-20T00:02:00.409Z,12.27
2018-12-20T00:04:27.937Z,13.27
2018-12-20T00:06:55.496Z,12.00
2018-12-20T00:09:23.120Z,12.87
2018-12-20T00:11:50.886Z,14.10
2018-12-20T00:14:18.481Z,16.63
2018-12-20T00:16:48.033Z,15.23
2018-12-20T00:19:15.650Z,17.43
2018-12-20T00:21:43.174Z,15.10
2018-12-20T00:24:10.704Z,16.13
2018-12-20T00:26:38.210Z,14.80
2018-12-20T00:29:05.849Z,14.20
2018-12-20T00:31:33.571Z,14.13
2018-12-20T00:34:01.162Z,12.50
2018-12-20T00:36:28.959Z,12.57
2018-12-20T00:38:56.665Z,11.97
2018-12-20T00:41:24.485Z,14.07
2018-12-20T00:43:51.996Z,11.17
2018-12-20T00:46:19.600Z,12.70
2018-12-20T00:48:47.146Z,14.70
2018-12-20T00:51:14.714Z,10.13
2018-12-20T00:53:42.701Z,11.27
2018-12-20T00:56:10.513Z,10.83
2018-12-20T00:58:38.163Z,9.67
2018-12-20T01:01:05.748Z,14.53
2018-12-20T01:03:33.342Z,12.43
2018-12-20T01:06:00.852Z,12.70
2018-12-20T01:08:28.468Z,12.80
2018-12-20T01:10:56.070Z,10.90
2018-12-20T01:13:23.628Z,14.23
2018-12-20T01:15:51.152Z,11.93
2018-12-20T01:18:18.845Z,15.00
2018-12-20T01:20:46.685Z,21.80
2018-12-20T01:23:14.377Z,29.10
2018-12-20T01:25:42.138Z,39.37
2018-12-20T01:28:09.791Z,36.30
2018-12-20T01:30:37.564Z,29.87
2018-12-20T01:33:05.224Z,59.47
2018-12-20T01:35:33.125Z,44.13
2018-12-20T01:38:00.759Z,16.93
2018-12-20T01:40:28.495Z,9.97
2018-12-20T01:42:56.137Z,8.63
2018-12-20T01:45:23.740Z,7.50
2018-12-20T01:47:51.467Z,8.00
2018-12-20T01:50:19.235Z,10.40
2018-12-20T01:52:46.806Z,7.40
2018-12-20T01:55:14.371Z,8.80
2018-12-20T01:57:42.015Z,7.60
2018-12-20T02:00:10.837Z,5.27
2018-12-20T02:02:38.392Z,4.87
2018-12-20T02:05:06.011Z,4.83
2018-12-20T02:07:33.602Z,4.70
2018-12-20T02:10:01.185Z,5.63
2018-12-20T02:12:28.754Z,6.03
2018-12-20T02:15:01.557Z,5.23
2018-12-20T02:17:25.800Z,5.20
2018-12-20T02:19:53.614Z,5.60
2018-12-20T02:22:21.318Z,6.47
2018-12-20T02:24:49.005Z,4.93
2018-12-20T02:27:16.718Z,7.63
2018-12-20T02:29:44.492Z,5.83
2018-12-20T02:32:12.007Z,7.30
2018-12-20T02:34:39.529Z,5.60
2018-12-20T02:37:07.216Z,5.60
2018-12-20T02:39:35.055Z,7.67
2018-12-20T02:42:02.872Z,4.70
2018-12-20T02:44:30.690Z,4.80
2018-12-20T02:46:58.518Z,4.40
2018-12-20T02:49:26.269Z,5.50
2018-12-20T02:51:54.210Z,5.23
2018-12-20T02:54:21.930Z,6.60
2018-12-20T02:56:49.431Z,4.33
2018-12-20T02:59:17.031Z,4.50
2018-12-20T03:01:44.904Z,7.57
2018-12-20T03:04:12.530Z,7.00
2018-12-20T03:06:40.134Z,7.80
2018-12-20T03:09:07.692Z,7.40
2018-12-20T03:11:35.299Z,10.37
2018-12-20T03:14:03.180Z,9.63
2018-12-20T03:16:30.914Z,8.70
2018-12-20T03:18:58.757Z,9.77
2018-12-20T03:21:26.694Z,10.87
2018-12-20T03:23:54.512Z,12.17
2018-12-20T03:26:22.431Z,10.77
2018-12-20T03:28:50.263Z,12.23
2018-12-20T03:31:18.212Z,13.43
2018-12-20T03:33:46.074Z,10.43
2018-12-20T03:36:13.800Z,9.80
2018-12-20T03:38:41.532Z,7.17
2018-12-20T03:41:09.395Z,8.17
2018-12-20T03:43:37.071Z,7.20
2018-12-20T03:46:04.783Z,5.40
2018-12-20T03:48:32.440Z,5.17
2018-12-20T03:51:00.103Z,6.47
2018-12-20T03:53:27.777Z,5.63
2018-12-20T03:55:55.495Z,8.00
2018-12-20T03:58:23.189Z,10.80
2018-12-20T04:00:51.123Z,8.37
2018-12-20T04:03:18.877Z,7.67
2018-12-20T04:05:46.692Z,10.57
2018-12-20T04:08:14.427Z,12.80
2018-12-20T04:10:42.417Z,11.87
2018-12-20T04:13:10.154Z,10.83
2018-12-20T04:15:38.249Z,10.93
2018-12-20T04:18:06.317Z,10.03
2018-12-20T04:20:34.351Z,11.33
2018-12-20T04:23:02.026Z,10.80
2018-12-20T04:25:29.851Z,11.57
2018-12-20T04:27:57.615Z,8.90
2018-12-20T04:30:25.459Z,11.90
2018-12-20T04:32:53.231Z,8.97
2018-12-20T04:35:20.730Z,11.70
2018-12-20T04:37:48.240Z,13.27
2018-12-20T04:40:16.010Z,31.83
2018-12-20T04:42:43.874Z,30.23
2018-12-20T04:45:11.893Z,20.20
2018-12-20T04:47:39.961Z,14.77
2018-12-20T04:50:07.809Z,29.67
2018-12-20T04:52:35.606Z,17.77
2018-12-20T04:55:03.485Z,7.90
2018-12-20T04:57:31.542Z,5.60
2018-12-20T04:59:59.563Z,6.50
2018-12-20T05:02:27.357Z,6.23
2018-12-20T05:04:55.395Z,4.90
2018-12-20T05:07:23.315Z,3.97
2018-12-20T05:09:51.249Z,4.20
2018-12-20T05:12:18.877Z,5.03
2018-12-20T05:14:46.696Z,7.33
2018-12-20T05:17:14.607Z,6.80
2018-12-20T05:19:45.574Z,8.10
2018-12-20T05:22:13.227Z,9.93
2018-12-20T05:24:41.108Z,10.33
2018-12-20T05:27:08.807Z,8.33
2018-12-20T05:29:36.590Z,4.70
2018-12-20T05:32:04.188Z,7.60
2018-12-20T05:34:31.721Z,12.43
2018-12-20T05:36:59.287Z,6.73
2018-12-20T05:39:27.046Z,7.83
2018-12-20T05:41:54.911Z,12.70
2018-12-20T05:44:22.500Z,10.63
2018-12-20T05:46:56.069Z,15.50
2018-12-20T05:49:24.322Z,7.10
2018-12-20T05:51:52.058Z,9.43
2018-12-20T05:54:19.999Z,14.70
2018-12-20T05:56:47.762Z,17.07
2018-12-20T05:59:15.432Z,12.47
2018-12-20T06:01:43.015Z,8.47
2018-12-20T06:04:11.597Z,9.67
2018-12-20T06:06:39.384Z,10.37
2018-12-20T06:09:07.395Z,8.87
2018-12-20T06:11:34.927Z,12.67
2018-12-20T06:14:02.612Z,12.43
2018-12-20T06:16:30.275Z,8.27
2018-12-20T06:18:57.901Z,8.10
2018-12-20T06:21:25.635Z,10.80
2018-12-20T06:23:53.388Z,5.47
2018-12-20T06:26:20.894Z,5.80
2018-12-20T06:28:48.398Z,10.80
2018-12-20T06:31:15.926Z,12.03
2018-12-20T06:33:43.440Z,9.27
2018-12-20T06:36:10.959Z,9.47
2018-12-20T06:38:38.465Z,8.23
2018-12-20T06:41:05.987Z,12.80
2018-12-20T06:43:33.629Z,11.77
2018-12-20T06:46:01.155Z,12.13
2018-12-20T06:48:28.682Z,10.73
2018-12-20T06:50:56.191Z,9.93
2018-12-20T06:53:23.709Z,12.80
2018-12-20T06:55:51.227Z,11.23
2018-12-20T06:58:18.761Z,13.27
2018-12-20T07:00:46.266Z,11.47
2018-12-20T07:03:13.777Z,15.13
2018-12-20T07:05:41.286Z,15.40
2018-12-20T07:08:08.801Z,12.83
2018-12-20T07:10:36.495Z,13.33
2018-12-20T07:13:05.427Z,19.10
2018-12-20T07:15:33.075Z,19.97
2018-12-20T07:18:00.613Z,14.97
2018-12-20T07:20:28.119Z,8.90
2018-12-20T07:22:55.619Z,6.87
2018-12-20T07:25:23.126Z,17.37
2018-12-20T07:27:50.640Z,9.83
2018-12-20T07:30:18.149Z,13.50
2018-12-20T07:32:45.662Z,8.13
2018-12-20T07:35:13.168Z,7.43
2018-12-20T07:37:40.681Z,4.80
2018-12-20T07:40:09.230Z,6.33
2018-12-20T07:42:36.748Z,5.97
2018-12-20T07:45:05.256Z,5.13
2018-12-20T07:47:32.770Z,6.40
2018-12-20T07:50:00.283Z,5.93
2018-12-20T07:52:27.801Z,5.00
2018-12-20T07:54:55.319Z,13.77
2018-12-20T07:57:24.815Z,4.10
2018-12-20T07:59:52.380Z,5.17
2018-12-20T08:02:19.901Z,7.73
2018-12-20T08:04:47.417Z,5.37
2018-12-20T08:07:14.933Z,5.07
2018-12-20T08:09:42.465Z,5.53
2018-12-20T08:12:09.977Z,14.37
2018-12-20T08:14:37.509Z,22.73
2018-12-20T08:17:05.199Z,15.17
2018-12-20T08:19:36.387Z,14.63
2018-12-20T08:22:02.385Z,15.40
2018-12-20T08:24:30.089Z,12.93
2018-12-20T08:26:57.601Z,10.67
2018-12-20T08:29:25.121Z,12.43
2018-12-20T08:31:52.651Z,7.77
2018-12-20T08:34:20.174Z,7.97
2018-12-20T08:36:47.686Z,5.23
2018-12-20T08:39:15.202Z,6.53
2018-12-20T08:41:42.741Z,8.83
2018-12-20T08:44:10.270Z,3.93
2018-12-20T08:46:39.811Z,5.27
2018-12-20T08:49:07.468Z,11.37
2018-12-20T08:51:34.982Z,8.07
2018-12-20T08:54:02.518Z,10.87
2018-12-20T08:56:30.024Z,10.97
2018-12-20T08:58:57.527Z,4.70
2018-12-20T09:01:25.160Z,7.47
2018-12-20T09:03:52.666Z,7.17
2018-12-20T09:06:20.182Z,5.47
2018-12-20T09:08:47.708Z,4.10
2018-12-20T09:11:15.360Z,4.27
2018-12-20T09:13:42.926Z,3.50
2018-12-20T09:16:10.449Z,3.20
2018-12-20T09:18:37.987Z,3.60
2018-12-20T09:21:05.515Z,3.70
2018-12-20T09:23:33.032Z,3.20
2018-12-20T09:26:00.551Z,3.27
2018-12-20T09:28:28.064Z,3.43
2018-12-20T09:30:55.575Z,3.30
2018-12-20T09:33:23.093Z,4.20
2018-12-20T09:35:50.593Z,3.30
2018-12-20T09:38:18.119Z,3.43
2018-12-20T09:40:45.638Z,3.47
2018-12-20T09:43:13.143Z,3.80
2018-12-20T09:45:40.888Z,3.97
2018-12-20T09:48:08.611Z,4.03
2018-12-20T09:50:36.123Z,4.10
2018-12-20T09:53:03.641Z,4.17
2018-12-20T09:55:31.156Z,4.70
2018-12-20T09:57:58.691Z,4.47
2018-12-20T10:00:26.189Z,4.20
2018-12-20T10:02:53.712Z,5.30
2018-12-20T10:05:21.220Z,5.00
2018-12-20T10:07:48.740Z,5.00
2018-12-20T10:10:16.249Z,4.83
2018-12-20T10:12:43.778Z,5.60
2018-12-20T10:15:11.336Z,5.73
2018-12-20T10:17:38.844Z,5.87
2018-12-20T10:20:08.015Z,4.73
2018-12-20T10:22:35.523Z,5.03
2018-12-20T10:25:03.046Z,5.00
2018-12-20T10:27:31.580Z,3.97
2018-12-20T10:29:59.496Z,5.17
2018-12-20T10:32:27.006Z,4.63
2018-12-20T10:34:54.527Z,6.23
2018-12-20T10:37:22.058Z,3.97
2018-12-20T10:39:49.579Z,4.60
2018-12-20T10:42:17.110Z,4.70
2018-12-20T10:44:44.625Z,6.03
2018-12-20T10:47:18.660Z,4.93
2018-12-20T10:49:46.232Z,5.00
2018-12-20T10:52:13.756Z,4.10
2018-12-20T10:54:41.265Z,6.10
2018-12-20T10:57:08.808Z,4.43
2018-12-20T10:59:36.338Z,3.93
2018-12-20T11:02:09.602Z,4.33
2018-12-20T11:07:46.937Z,4.30
2018-12-20T11:10:22.305Z,4.27
2018-12-20T11:12:49.872Z,5.33
2018-12-20T11:15:17.516Z,4.40
2018-12-20T11:17:45.088Z,4.27
2018-12-20T11:20:12.665Z,4.80
2018-12-20T11:22:40.259Z,5.10
2018-12-20T11:25:07.817Z,4.00
2018-12-20T11:27:35.336Z,4.10
2018-12-20T11:30:03.035Z,3.90
2018-12-20T11:32:30.651Z,4.13
2018-12-20T11:34:58.152Z,3.90
2018-12-20T11:37:25.664Z,4.33
2018-12-20T11:39:59.523Z,3.80
2018-12-20T11:42:22.791Z,3.73
2018-12-20T11:44:50.297Z,4.20
2018-12-20T11:47:23.561Z,3.23
2018-12-20T11:49:51.057Z,3.20
2018-12-20T11:52:18.615Z,3.27
2018-12-20T11:54:46.169Z,3.77
2018-12-20T11:57:13.678Z,3.57
2018-12-20T11:59:41.250Z,3.33
2018-12-20T12:02:08.759Z,2.60
2018-12-20T12:04:36.276Z,3.30
2018-12-20T12:07:03.781Z,3.20
2018-12-20T12:09:31.443Z,3.20
2018-12-20T12:11:58.954Z,3.17
2018-12-20T12:14:26.455Z,3.33
2018-12-20T12:16:53.965Z,3.23
2018-12-20T12:19:21.517Z,3.60
2018-12-20T12:21:49.603Z,3.63
2018-12-20T12:24:17.223Z,3.60
2018-12-20T12:26:44.733Z,3.40
2018-12-20T12:29:12.248Z,3.93
2018-12-20T12:31:39.759Z,3.83
2018-12-20T12:34:07.291Z,4.10
2018-12-20T12:36:34.824Z,4.10
2018-12-20T12:39:02.453Z,4.67
2018-12-20T12:41:29.965Z,4.10
2018-12-20T12:43:57.487Z,4.30
2018-12-20T12:46:25.023Z,3.27
2018-12-20T12:48:52.567Z,3.90
2018-12-20T12:51:20.077Z,3.63
2018-12-20T12:53:47.613Z,3.80
2018-12-20T12:56:15.122Z,3.73
2018-12-20T12:58:42.797Z,4.03
2018-12-20T13:01:10.317Z,3.80
2018-12-20T13:03:37.824Z,3.70
2018-12-20T13:06:05.347Z,4.00
2018-12-20T13:08:32.890Z,3.67
2018-12-20T13:11:00.523Z,3.83
2018-12-20T13:13:28.034Z,4.33
2018-12-20T13:15:55.563Z,4.27
2018-12-20T13:18:23.153Z,4.10
2018-12-20T13:20:50.677Z,4.70
2018-12-20T13:23:18.184Z,3.40
2018-12-20T13:25:45.703Z,2.70
2018-12-20T13:28:13.259Z,3.10
2018-12-20T13:30:40.768Z,3.77
2018-12-20T13:33:08.279Z,3.27
2018-12-20T13:35:35.790Z,3.10
2018-12-20T13:38:03.299Z,3.10
2018-12-20T13:40:30.800Z,2.97
2018-12-20T13:42:58.312Z,3.37
2018-12-20T13:45:25.831Z,4.07
2018-12-20T13:47:53.344Z,4.43
2018-12-20T13:50:20.854Z,4.87
2018-12-20T13:52:48.437Z,4.33
2018-12-20T13:55:16.014Z,4.07
2018-12-20T13:57:43.658Z,4.30
2018-12-20T14:00:13.129Z,4.43
2018-12-20T14:02:40.654Z,4.27
2018-12-20T14:05:08.172Z,4.17
2018-12-20T14:07:35.737Z,4.63
2018-12-20T14:10:03.260Z,4.47
2018-12-20T14:12:30.802Z,3.57
2018-12-20T14:14:58.312Z,3.63
2018-12-20T14:17:25.836Z,3.93
2018-12-20T14:19:53.348Z,4.00
2018-12-20T14:22:20.883Z,4.27
2018-12-20T14:24:48.516Z,3.80
2018-12-20T14:27:16.041Z,4.27
2018-12-20T14:29:43.552Z,3.93
2018-12-20T14:32:11.062Z,4.67
2018-12-20T14:34:38.577Z,5.13
2018-12-20T14:37:06.096Z,4.37
2018-12-20T14:39:33.608Z,4.53
2018-12-20T14:42:01.125Z,4.70
2018-12-20T14:44:28.633Z,5.63
2018-12-20T14:46:56.141Z,4.33
2018-12-20T14:49:23.633Z,4.60
2018-12-20T14:51:51.157Z,4.73
2018-12-20T14:54:18.675Z,5.50
2018-12-20T14:56:46.238Z,5.93
2018-12-20T14:59:13.742Z,4.83
2018-12-20T15:01:41.263Z,5.40
2018-12-20T15:04:08.775Z,5.77
2018-12-20T15:06:36.290Z,5.10
2018-12-20T15:09:06.346Z,6.27
2018-12-20T15:11:33.864Z,5.40
2018-12-20T15:14:01.387Z,5.07
2018-12-20T15:16:29.013Z,4.60
2018-12-20T15:18:56.532Z,4.93
2018-12-20T15:21:24.045Z,5.30
2018-12-20T15:23:51.623Z,6.13
2018-12-20T15:26:19.142Z,5.27
2018-12-20T15:28:46.647Z,3.93
2018-12-20T15:31:14.201Z,4.77
2018-12-20T15:33:41.709Z,4.37
2018-12-20T15:36:09.281Z,4.90
2018-12-20T15:38:36.792Z,5.33
2018-12-20T15:41:04.315Z,4.70
2018-12-20T15:43:32.326Z,4.77
2018-12-20T15:45:59.845Z,4.77
2018-12-20T15:48:27.912Z,5.40
2018-12-20T15:50:55.507Z,5.40
2018-12-20T15:53:23.026Z,4.40
2018-12-20T15:55:50.562Z,5.37
2018-12-20T15:58:20.056Z,5.07
2018-12-20T16:00:47.681Z,4.90
2018-12-20T16:03:22.754Z,5.20
2018-12-20T16:05:50.752Z,5.00
2018-12-20T16:08:18.402Z,5.40
2018-12-20T16:10:45.908Z,10.93
2018-12-20T16:13:13.470Z,6.13
2018-12-20T16:15:40.970Z,6.60
2018-12-20T16:18:08.485Z,6.10
2018-12-20T16:20:36.000Z,5.57
2018-12-20T16:23:03.502Z,5.00
2018-12-20T16:25:31.010Z,5.23
2018-12-20T16:27:58.519Z,5.63
2018-12-20T16:30:26.082Z,5.43
2018-12-20T16:32:53.681Z,5.33
2018-12-20T16:35:21.271Z,5.60
2018-12-20T16:37:48.822Z,5.97
2018-12-20T16:40:16.340Z,5.10
2018-12-20T16:42:43.974Z,6.00
2018-12-20T16:45:11.497Z,5.20
2018-12-20T16:47:39.011Z,4.87
2018-12-20T16:50:06.752Z,5.00
2018-12-20T16:52:34.386Z,5.13
2018-12-20T16:55:01.899Z,5.43
2018-12-20T16:57:29.415Z,5.17
2018-12-20T16:59:56.925Z,5.33
2018-12-20T17:02:24.437Z,5.50
2018-12-20T17:04:52.094Z,6.23
2018-12-20T17:07:19.652Z,5.47
2018-12-20T17:09:47.169Z,5.93
2018-12-20T17:12:14.675Z,5.40
2018-12-20T17:14:42.184Z,5.37
2018-12-20T17:17:09.691Z,4.83
2018-12-20T17:19:37.218Z,12.63
2018-12-20T17:22:04.732Z,5.80
2018-12-20T17:24:32.251Z,7.07
2018-12-20T17:26:59.922Z,7.63
2018-12-20T17:29:27.427Z,8.97
2018-12-20T17:31:54.945Z,7.30
2018-12-20T17:34:22.465Z,7.73
2018-12-20T17:36:50.099Z,8.90
2018-12-20T17:39:17.610Z,7.97
2018-12-20T17:41:45.117Z,4.40
2018-12-20T17:44:12.634Z,4.90
2018-12-20T17:46:40.143Z,5.13
2018-12-20T17:49:07.666Z,4.97
2018-12-20T17:51:35.240Z,5.73
2018-12-20T17:54:02.784Z,5.13
2018-12-20T17:56:33.992Z,6.20
2018-12-20T17:59:01.679Z,6.00
2018-12-20T18:01:29.200Z,4.93
2018-12-20T18:03:56.741Z,6.50
2018-12-20T18:06:24.449Z,4.80
2018-12-20T18:08:51.944Z,5.40
2018-12-20T18:11:19.449Z,5.53
2018-12-20T18:13:46.992Z,4.57
2018-12-20T18:16:14.582Z,4.00
2018-12-20T18:18:42.174Z,4.40
2018-12-20T18:21:09.675Z,4.97
2018-12-20T18:23:37.179Z,4.90
2018-12-20T18:26:04.930Z,8.17
2018-12-20T18:28:32.440Z,10.23
2018-12-20T18:30:59.956Z,14.27
2018-12-20T18:33:27.462Z,12.50
2018-12-20T18:35:55.008Z,14.37
2018-12-20T18:38:22.540Z,14.53
2018-12-20T18:40:50.062Z,18.50
2018-12-20T18:43:17.580Z,10.63
2018-12-20T18:45:45.280Z,9.73
2018-12-20T18:48:12.822Z,13.80
2018-12-20T18:50:40.338Z,14.63
2018-12-20T18:53:07.873Z,15.87
2018-12-20T18:55:35.389Z,15.63
2018-12-20T18:58:02.932Z,16.90
2018-12-20T19:00:30.451Z,15.17
2018-12-20T19:02:57.965Z,11.23
2018-12-20T19:05:25.494Z,11.97
2018-12-20T19:07:53.017Z,13.70
2018-12-20T19:10:20.588Z,14.13
2018-12-20T19:12:48.231Z,10.63
2018-12-20T19:15:15.739Z,12.40
2018-12-20T19:17:43.259Z,11.60
2018-12-20T19:20:15.958Z,13.23
2018-12-20T19:22:40.435Z,9.43
2018-12-20T19:25:08.210Z,10.50
2018-12-20T19:27:35.739Z,14.20
2018-12-20T19:30:04.407Z,14.60
2018-12-20T19:32:31.932Z,12.63
2018-12-20T19:34:59.461Z,10.73
2018-12-20T19:37:26.971Z,8.23
2018-12-20T19:39:56.455Z,5.10
2018-12-20T19:42:23.975Z,6.43
2018-12-20T19:44:51.481Z,5.03
2018-12-20T19:47:18.985Z,4.07
2018-12-20T19:49:46.501Z,4.20
2018-12-20T19:52:14.007Z,4.50
2018-12-20T19:54:47.943Z,6.27
2018-12-20T19:57:11.076Z,4.60
2018-12-20T19:59:39.011Z,4.87
2018-12-20T20:02:06.745Z,4.30
2018-12-20T20:04:34.318Z,4.40
2018-12-20T20:07:01.828Z,4.07
2018-12-20T20:09:29.442Z,3.93
2018-12-20T20:11:56.964Z,4.03
2018-12-20T20:14:24.481Z,4.60
2018-12-20T20:16:52.000Z,4.47
2018-12-20T20:19:19.531Z,4.17
2018-12-20T20:21:47.056Z,4.93
2018-12-20T20:24:14.602Z,6.13
2018-12-20T20:26:42.152Z,6.20
2018-12-20T20:29:09.659Z,7.30
2018-12-20T20:31:37.174Z,5.63
2018-12-20T20:34:04.694Z,5.87
2018-12-20T20:36:32.218Z,10.67
2018-12-20T20:39:02.152Z,11.30
2018-12-20T20:41:29.284Z,12.37
2018-12-20T20:43:56.802Z,6.10
2018-12-20T20:46:24.325Z,8.63
2018-12-20T20:48:51.859Z,7.17
2018-12-20T20:51:19.383Z,6.43
2018-12-20T20:53:46.901Z,7.53
2018-12-20T20:56:14.409Z,5.73
2018-12-20T20:58:41.924Z,8.87
2018-12-20T21:01:09.558Z,5.13
2018-12-20T21:03:37.268Z,5.17
2018-12-20T21:06:04.780Z,7.87
2018-12-20T21:08:32.302Z,8.23
2018-12-20T21:10:59.820Z,9.27
2018-12-20T21:13:27.329Z,9.97
2018-12-20T21:15:55.168Z,6.30
2018-12-20T21:18:22.682Z,8.60
2018-12-20T21:20:50.215Z,6.90
2018-12-20T21:23:17.840Z,4.63
2018-12-20T21:25:45.372Z,4.00
2018-12-20T21:28:12.904Z,6.07
2018-12-20T21:30:40.464Z,4.63
2018-12-20T21:33:07.978Z,3.00
2018-12-20T21:35:35.498Z,3.50
2018-12-20T21:38:03.028Z,3.47
2018-12-20T21:40:30.538Z,3.80
2018-12-20T21:42:58.047Z,3.50
2018-12-20T21:45:25.614Z,5.67
2018-12-20T21:47:53.128Z,4.77
2018-12-20T21:50:20.641Z,4.93
2018-12-20T21:52:48.140Z,4.03
2018-12-20T21:55:15.657Z,5.23
2018-12-20T21:57:43.184Z,6.97
2018-12-20T22:00:10.770Z,4.90
2018-12-20T22:02:38.304Z,7.23
2018-12-20T22:05:05.804Z,4.73
2018-12-20T22:07:33.358Z,6.10
2018-12-20T22:10:00.971Z,5.70
2018-12-20T22:12:28.488Z,3.83
2018-12-20T22:14:55.997Z,3.47
2018-12-20T22:17:23.519Z,3.13
2018-12-20T22:19:58.427Z,2.80
2018-12-20T22:22:20.648Z,3.43
2018-12-20T22:24:48.163Z,2.93
2018-12-20T22:27:15.679Z,2.63
2018-12-20T22:29:43.183Z,3.33
2018-12-20T22:32:10.713Z,3.37
2018-12-20T22:34:38.256Z,3.40
2018-12-20T22:37:05.780Z,3.37
2018-12-20T22:39:33.313Z,3.07
2018-12-20T22:42:00.818Z,3.00
2018-12-20T22:44:28.336Z,4.70
2018-12-20T22:46:55.848Z,4.23
2018-12-20T22:49:23.382Z,4.90
2018-12-20T22:51:50.913Z,4.07
2018-12-20T22:54:18.606Z,6.07
2018-12-20T22:56:46.119Z,4.70
2018-12-20T22:59:13.639Z,7.10
2018-12-20T23:01:41.149Z,7.67
2018-12-20T23:04:08.664Z,13.40
2018-12-20T23:06:36.175Z,12.13
2018-12-20T23:09:05.239Z,16.10
2018-12-20T23:11:32.740Z,11.47
2018-12-20T23:14:00.337Z,10.03
2018-12-20T23:16:27.878Z,10.10
2018-12-20T23:18:55.392Z,10.73
2018-12-20T23:21:22.931Z,4.90
2018-12-20T23:23:50.470Z,7.73
2018-12-20T23:26:17.978Z,7.70
2018-12-20T23:28:45.499Z,13.10
2018-12-20T23:31:13.031Z,10.60
2018-12-20T23:33:40.552Z,12.27
2018-12-20T23:36:08.074Z,12.30
2018-12-20T23:38:35.597Z,13.23
2018-12-20T23:41:03.128Z,15.03
2018-12-20T23:43:30.660Z,10.40
2018-12-20T23:45:58.308Z,12.83
2018-12-20T23:48:25.814Z,16.17
2018-12-20T23:50:53.419Z,9.20
2018-12-20T23:53:20.942Z,15.30
2018-12-20T23:55:48.563Z,12.60
2018-12-20T23:58:16.207Z,15.70
